Time;durP1;ratioP1;P1;durP2;ratioP2;P2;SDS_P1;SDS_P2;PMS_P1;PMS_P2;Temp;Humidity;BMP_temperature;BMP_pressure;BME280_temperature;BME280_humidity;BME280_pressure;Samples;Min_cycle;Max_cycle;Signal;HPM_P1;HPM_P2
2023/07/08 00:01:04;;;;;;;12.60;7.00;;;;;;;;;;107953;1251;22554;-80
2023/07/08 00:03:44;;;;;;;13.30;8.00;;;;;;;;;;107958;1255;22533;-80
2023/07/08 00:06:12;;;;;;;14.20;7.40;;;;;;;;;;107787;1257;22607;-79
2023/07/08 00:08:39;;;;;;;13.40;7.80;;;;;;;;;;107803;1251;22990;-80
2023/07/08 00:11:11;;;;;;;12.60;7.00;;;;;;;;;;107987;1251;23996;-80
2023/07/08 00:13:38;;;;;;;15.30;6.90;;;;;;;;;;107958;1254;23352;-80
2023/07/08 00:16:04;;;;;;;10.00;6.90;;;;;;;;;;107959;1251;24218;-79
2023/07/08 00:18:31;;;;;;;11.10;7.00;;;;;;;;;;107952;1251;22604;-80
2023/07/08 00:20:59;;;;;;;10.50;6.40;;;;;;;;;;107962;1254;22509;-80
2023/07/08 00:23:26;;;;;;;8.90;6.60;;;;;;;;;;107986;1251;22636;-80
2023/07/08 00:25:53;;;;;;;11.30;7.30;;;;;;;;;;107971;1250;24259;-79
2023/07/08 00:28:20;;;;;;;14.00;7.40;;;;;;;;;;107964;1251;22618;-80
2023/07/08 00:30:46;;;;;;;9.10;6.30;;;;;;;;;;107973;1251;22627;-79
2023/07/08 00:33:12;;;;;;;10.20;7.30;;;;;;;;;;107957;1251;23669;-80
2023/07/08 00:35:40;;;;;;;11.60;7.50;;;;;;;;;;107961;1251;24260;-80
2023/07/08 00:38:26;;;;;;;12.40;7.20;;;;;;;;;;107952;1251;25484;-79
2023/07/08 00:40:58;;;;;;;12.70;6.20;;;;;;;;;;107949;1251;24274;-79
2023/07/08 00:43:38;;;;;;;11.90;6.70;;;;;;;;;;107535;1251;22602;-80
2023/07/08 00:46:23;;;;;;;11.70;6.70;;;;;;;;;;107503;1251;22616;-79
2023/07/08 00:48:50;;;;;;;12.60;6.80;;;;;;;;;;107521;1251;23282;-80
2023/07/08 00:51:16;;;;;;;11.20;7.80;;;;;;;;;;107966;1251;22857;-80
2023/07/08 00:53:43;;;;;;;11.90;6.90;;;;;;;;;;107949;1251;22638;-79
2023/07/08 00:56:11;;;;;;;8.40;6.20;;;;;;;;;;107960;1251;23228;-79
2023/07/08 00:58:38;;;;;;;10.90;6.60;;;;;;;;;;108178;1251;22634;-79
2023/07/08 01:01:05;;;;;;;12.30;6.70;;;;;;;;;;107967;1251;22537;-80
2023/07/08 01:03:31;;;;;;;11.90;7.70;;;;;;;;;;107894;1251;25329;-80
2023/07/08 01:05:59;;;;;;;11.70;7.40;;;;;;;;;;107832;1251;22530;-80
2023/07/08 01:08:28;;;;;;;11.60;8.30;;;;;;;;;;108127;1266;23389;-81
2023/07/08 01:11:01;;;;;;;10.50;6.70;;;;;;;;;;108014;1251;25304;-80
2023/07/08 01:13:28;;;;;;;9.10;5.90;;;;;;;;;;107843;1251;24340;-80
2023/07/08 01:15:55;;;;;;;8.60;6.10;;;;;;;;;;107994;1251;25398;-80
2023/07/08 01:18:21;;;;;;;9.20;6.90;;;;;;;;;;107972;1251;23241;-80
2023/07/08 01:20:47;;;;;;;11.90;7.00;;;;;;;;;;107858;1265;22663;-80
2023/07/08 01:23:14;;;;;;;8.60;6.30;;;;;;;;;;107923;1251;22565;-80
2023/07/08 01:25:41;;;;;;;10.60;6.30;;;;;;;;;;107963;1250;22521;-79
2023/07/08 01:28:07;;;;;;;11.50;7.00;;;;;;;;;;107929;1251;24874;-80
2023/07/08 01:30:34;;;;;;;9.50;6.40;;;;;;;;;;107971;1251;22643;-79
2023/07/08 01:33:01;;;;;;;8.00;6.00;;;;;;;;;;107823;1252;24249;-80
2023/07/08 01:35:28;;;;;;;8.30;5.90;;;;;;;;;;107828;1251;25471;-79
2023/07/08 01:37:56;;;;;;;8.60;6.40;;;;;;;;;;107922;1251;22667;-79
2023/07/08 01:40:29;;;;;;;11.40;5.80;;;;;;;;;;107967;1251;22521;-79
2023/07/08 01:42:56;;;;;;;11.10;7.00;;;;;;;;;;107820;1253;22534;-80
2023/07/08 01:45:22;;;;;;;10.50;6.40;;;;;;;;;;107995;1251;22539;-79
2023/07/08 01:47:53;;;;;;;11.40;6.60;;;;;;;;;;107974;1251;24224;-79
2023/07/08 01:50:20;;;;;;;9.70;6.80;;;;;;;;;;110709;1250;22599;-80
2023/07/08 01:52:47;;;;;;;9.00;6.10;;;;;;;;;;109154;1251;22559;-79
2023/07/08 01:55:14;;;;;;;9.40;6.40;;;;;;;;;;107796;1251;25471;-79
2023/07/08 01:57:40;;;;;;;9.30;6.30;;;;;;;;;;107975;1251;25315;-79
2023/07/08 02:00:07;;;;;;;9.40;6.30;;;;;;;;;;107799;1252;22867;-79
2023/07/08 02:02:33;;;;;;;10.10;6.40;;;;;;;;;;107995;1251;22569;-79
2023/07/08 02:05:00;;;;;;;8.20;5.70;;;;;;;;;;107948;1251;22642;-80
2023/07/08 02:07:26;;;;;;;8.30;6.80;;;;;;;;;;107817;1251;23014;-80
2023/07/08 02:09:52;;;;;;;8.50;6.20;;;;;;;;;;107985;1251;24365;-79
2023/07/08 02:12:19;;;;;;;9.60;7.10;;;;;;;;;;107805;1251;22630;-79
2023/07/08 02:14:45;;;;;;;9.90;7.40;;;;;;;;;;108010;1251;22651;-80
2023/07/08 02:17:14;;;;;;;10.10;6.80;;;;;;;;;;107944;1252;22649;-79
2023/07/08 02:19:40;;;;;;;10.60;7.50;;;;;;;;;;107481;1251;24260;-79
2023/07/08 02:22:07;;;;;;;10.60;7.80;;;;;;;;;;107475;1251;22552;-79
2023/07/08 02:24:33;;;;;;;9.40;7.30;;;;;;;;;;107923;1251;22619;-79
2023/07/08 02:26:59;;;;;;;9.00;6.90;;;;;;;;;;107984;1253;22553;-79
2023/07/08 02:29:26;;;;;;;10.00;6.20;;;;;;;;;;107961;1251;22531;-79
2023/07/08 02:31:52;;;;;;;8.70;6.50;;;;;;;;;;110518;1251;23273;-79
2023/07/08 02:34:19;;;;;;;8.30;6.30;;;;;;;;;;109648;1251;22445;-79
2023/07/08 02:36:46;;;;;;;9.80;5.90;;;;;;;;;;110708;1251;22818;-80
2023/07/08 02:39:12;;;;;;;10.90;5.50;;;;;;;;;;110320;1251;25278;-79
2023/07/08 02:41:38;;;;;;;8.60;6.50;;;;;;;;;;107957;1251;25175;-79
2023/07/08 02:44:05;;;;;;;10.80;6.50;;;;;;;;;;107985;1251;25496;-79
2023/07/08 02:46:31;;;;;;;8.50;6.70;;;;;;;;;;107941;1251;22608;-80
2023/07/08 02:48:57;;;;;;;7.90;6.00;;;;;;;;;;107813;1251;24264;-79
2023/07/08 02:51:24;;;;;;;10.00;7.30;;;;;;;;;;107725;1250;22615;-79
2023/07/08 02:53:50;;;;;;;10.60;7.30;;;;;;;;;;107957;1251;22692;-79
2023/07/08 02:56:17;;;;;;;10.50;6.90;;;;;;;;;;107967;1251;22532;-79
2023/07/08 02:58:43;;;;;;;7.40;6.00;;;;;;;;;;107982;1251;24110;-79
2023/07/08 03:01:09;;;;;;;8.20;6.00;;;;;;;;;;107983;1252;25327;-79
2023/07/08 03:03:36;;;;;;;9.20;6.40;;;;;;;;;;107952;1251;22657;-79
2023/07/08 03:06:02;;;;;;;9.40;6.40;;;;;;;;;;108068;1254;25393;-78
2023/07/08 03:08:29;;;;;;;9.80;6.10;;;;;;;;;;107988;1251;23329;-81
2023/07/08 03:10:56;;;;;;;9.40;7.20;;;;;;;;;;107951;1254;22526;-79
2023/07/08 03:13:23;;;;;;;12.30;6.80;;;;;;;;;;107898;1251;22526;-80
2023/07/08 03:15:50;;;;;;;9.80;6.80;;;;;;;;;;107816;1251;25501;-79
2023/07/08 03:18:17;;;;;;;7.40;5.70;;;;;;;;;;107976;1251;26492;-79
2023/07/08 03:20:46;;;;;;;11.20;6.50;;;;;;;;;;107907;1251;24243;-80
2023/07/08 03:23:12;;;;;;;11.10;6.90;;;;;;;;;;107789;1251;23389;-80
2023/07/08 03:25:38;;;;;;;11.10;6.80;;;;;;;;;;108000;1251;22806;-80
2023/07/08 03:28:14;;;;;;;19.30;8.30;;;;;;;;;;108585;1251;22724;-80
2023/07/08 03:30:41;;;;;;;9.60;6.10;;;;;;;;;;107966;1251;24291;-80
2023/07/08 03:33:08;;;;;;;11.70;6.30;;;;;;;;;;107961;1251;22553;-80
2023/07/08 03:35:34;;;;;;;8.90;5.90;;;;;;;;;;108497;1251;22740;-80
2023/07/08 03:38:01;;;;;;;11.30;6.10;;;;;;;;;;107985;1251;22534;-80
2023/07/08 03:40:27;;;;;;;7.60;5.90;;;;;;;;;;107825;1251;22536;-80
2023/07/08 03:42:54;;;;;;;8.90;6.10;;;;;;;;;;107930;1251;22524;-79
2023/07/08 03:45:20;;;;;;;9.40;6.10;;;;;;;;;;107410;1251;22528;-79
2023/07/08 03:47:46;;;;;;;10.90;7.50;;;;;;;;;;107460;1254;22647;-79
2023/07/08 03:50:23;;;;;;;11.20;7.40;;;;;;;;;;107461;1250;22642;-79
2023/07/08 03:52:50;;;;;;;10.20;6.90;;;;;;;;;;107966;1251;22533;-79
2023/07/08 03:55:16;;;;;;;9.40;7.00;;;;;;;;;;107916;1253;22612;-79
2023/07/08 03:57:43;;;;;;;11.30;7.40;;;;;;;;;;107979;1252;23226;-79
2023/07/08 04:00:09;;;;;;;12.30;8.20;;;;;;;;;;107934;1251;22550;-79
2023/07/08 04:02:36;;;;;;;13.40;7.80;;;;;;;;;;107801;1251;22983;-80
2023/07/08 04:05:03;;;;;;;12.80;8.30;;;;;;;;;;107895;1251;26204;-80
2023/07/08 04:07:29;;;;;;;13.90;8.70;;;;;;;;;;107957;1251;24204;-80
2023/07/08 04:09:55;;;;;;;14.90;8.40;;;;;;;;;;107962;1251;22644;-80
2023/07/08 04:12:22;;;;;;;16.50;8.10;;;;;;;;;;107946;1251;23280;-79
2023/07/08 04:14:48;;;;;;;13.60;8.20;;;;;;;;;;107809;1251;24207;-79
2023/07/08 04:17:15;;;;;;;13.10;7.30;;;;;;;;;;107492;1251;23006;-80
2023/07/08 04:19:43;;;;;;;11.80;8.30;;;;;;;;;;107440;1253;24127;-80
2023/07/08 04:22:10;;;;;;;15.30;7.80;;;;;;;;;;107946;1251;22654;-80
2023/07/08 04:24:36;;;;;;;8.90;6.30;;;;;;;;;;107926;1251;24366;-80
2023/07/08 04:27:03;;;;;;;12.00;8.30;;;;;;;;;;107949;1251;24218;-80
2023/07/08 04:29:29;;;;;;;10.80;7.90;;;;;;;;;;107926;1250;22536;-80
2023/07/08 04:31:56;;;;;;;14.80;8.50;;;;;;;;;;107920;1251;22539;-79
2023/07/08 04:34:22;;;;;;;10.00;7.60;;;;;;;;;;107882;1254;24169;-80
2023/07/08 04:36:48;;;;;;;12.30;8.30;;;;;;;;;;108602;1251;23393;-80
2023/07/08 04:39:15;;;;;;;14.60;9.00;;;;;;;;;;107977;1251;24374;-80
2023/07/08 04:41:43;;;;;;;11.00;8.20;;;;;;;;;;107957;1251;24394;-80
2023/07/08 04:44:10;;;;;;;11.80;8.60;;;;;;;;;;107951;1251;22678;-80
2023/07/08 04:46:38;;;;;;;12.80;8.30;;;;;;;;;;107919;1251;23298;-80
2023/07/08 04:49:06;;;;;;;31.20;8.20;;;;;;;;;;107975;1249;22524;-80
2023/07/08 04:51:32;;;;;;;11.50;8.30;;;;;;;;;;107918;1251;22575;-80
2023/07/08 04:53:58;;;;;;;8.80;7.40;;;;;;;;;;107976;1254;25340;-80
2023/07/08 04:56:25;;;;;;;11.10;8.10;;;;;;;;;;107921;1251;24270;-80
2023/07/08 04:58:52;;;;;;;10.10;7.60;;;;;;;;;;108589;1251;25493;-80
2023/07/08 05:01:18;;;;;;;11.90;8.40;;;;;;;;;;107902;1251;25294;-80
2023/07/08 05:03:44;;;;;;;9.90;7.80;;;;;;;;;;107972;1251;22604;-80
2023/07/08 05:06:11;;;;;;;13.70;8.50;;;;;;;;;;108193;1253;22525;-81
2023/07/08 05:08:38;;;;;;;10.60;7.80;;;;;;;;;;107930;1251;25393;-80
2023/07/08 05:11:04;;;;;;;10.60;7.00;;;;;;;;;;107906;1251;25559;-80
2023/07/08 05:13:31;;;;;;;12.40;7.40;;;;;;;;;;107934;1251;22556;-80
2023/07/08 05:15:57;;;;;;;8.90;6.90;;;;;;;;;;107785;1251;22547;-80
2023/07/08 05:18:23;;;;;;;14.00;6.80;;;;;;;;;;107947;1250;22546;-80
2023/07/08 05:20:51;;;;;;;11.10;6.90;;;;;;;;;;107901;1251;22528;-80
2023/07/08 05:23:17;;;;;;;8.90;7.20;;;;;;;;;;107931;1251;24191;-80
2023/07/08 05:25:44;;;;;;;11.50;6.50;;;;;;;;;;107947;1251;22661;-80
2023/07/08 05:28:10;;;;;;;7.90;5.80;;;;;;;;;;107969;1251;25425;-80
2023/07/08 05:30:36;;;;;;;10.20;6.50;;;;;;;;;;107937;1251;26275;-80
2023/07/08 05:33:03;;;;;;;10.50;6.30;;;;;;;;;;107876;1251;22571;-80
2023/07/08 05:35:29;;;;;;;10.10;7.20;;;;;;;;;;107919;1251;25519;-80
2023/07/08 05:37:55;;;;;;;7.80;5.70;;;;;;;;;;107959;1251;23915;-80
2023/07/08 05:40:22;;;;;;;9.50;6.50;;;;;;;;;;107941;1251;24204;-80
2023/07/08 05:42:48;;;;;;;7.80;5.40;;;;;;;;;;107977;1251;25003;-80
2023/07/08 05:45:15;;;;;;;10.40;6.00;;;;;;;;;;107907;1252;23335;-80
2023/07/08 05:47:41;;;;;;;7.20;5.60;;;;;;;;;;107903;1251;22545;-79
2023/07/08 05:50:07;;;;;;;8.50;5.40;;;;;;;;;;107947;1251;22531;-79
2023/07/08 05:52:34;;;;;;;8.70;6.10;;;;;;;;;;107923;1251;22521;-79
2023/07/08 05:55:00;;;;;;;8.50;5.70;;;;;;;;;;107862;1250;24247;-80
2023/07/08 05:57:27;;;;;;;8.40;5.80;;;;;;;;;;107926;1251;22650;-79
2023/07/08 05:59:53;;;;;;;9.50;5.70;;;;;;;;;;107922;1251;22531;-80
2023/07/08 06:02:21;;;;;;;7.30;5.30;;;;;;;;;;107977;1250;24253;-80
2023/07/08 06:04:48;;;;;;;10.20;5.80;;;;;;;;;;107931;1251;24010;-80
2023/07/08 06:07:14;;;;;;;7.20;5.10;;;;;;;;;;107894;1251;22909;-80
2023/07/08 06:09:41;;;;;;;8.80;6.20;;;;;;;;;;107959;1253;22533;-80
2023/07/08 06:12:07;;;;;;;7.20;5.10;;;;;;;;;;107937;1251;23118;-80
2023/07/08 06:14:34;;;;;;;7.90;5.30;;;;;;;;;;107950;1254;22532;-80
2023/07/08 06:17:00;;;;;;;8.50;5.40;;;;;;;;;;107918;1251;23289;-80
2023/07/08 06:19:26;;;;;;;5.70;5.00;;;;;;;;;;107901;1254;23303;-80
2023/07/08 06:21:53;;;;;;;10.00;5.30;;;;;;;;;;107971;1251;22649;-80
2023/07/08 06:24:19;;;;;;;5.80;4.60;;;;;;;;;;107947;1251;25335;-80
2023/07/08 06:26:46;;;;;;;8.20;6.50;;;;;;;;;;107923;1254;22544;-80
2023/07/08 06:29:12;;;;;;;7.20;5.20;;;;;;;;;;108062;1251;24226;-80
2023/07/08 06:31:38;;;;;;;7.50;4.90;;;;;;;;;;107998;1250;22514;-80
2023/07/08 06:34:05;;;;;;;8.20;5.70;;;;;;;;;;107873;1250;22569;-80
2023/07/08 06:36:31;;;;;;;6.20;5.00;;;;;;;;;;107905;1252;22659;-80
2023/07/08 06:38:58;;;;;;;9.40;5.50;;;;;;;;;;107977;1251;22540;-80
2023/07/08 06:41:24;;;;;;;10.70;4.70;;;;;;;;;;107934;1251;22523;-80
2023/07/08 06:43:50;;;;;;;9.40;5.10;;;;;;;;;;108033;1250;22557;-80
2023/07/08 06:46:18;;;;;;;8.40;4.30;;;;;;;;;;107942;1252;22524;-80
2023/07/08 06:48:45;;;;;;;10.10;5.00;;;;;;;;;;107885;1251;22649;-80
2023/07/08 06:51:11;;;;;;;9.10;4.80;;;;;;;;;;107941;1250;24252;-80
2023/07/08 06:53:38;;;;;;;9.10;5.00;;;;;;;;;;108057;1251;22524;-80
2023/07/08 06:56:04;;;;;;;6.40;5.20;;;;;;;;;;107912;1251;24235;-80
2023/07/08 06:58:31;;;;;;;8.40;5.20;;;;;;;;;;107877;1251;22554;-80
2023/07/08 07:00:57;;;;;;;5.90;4.30;;;;;;;;;;107938;1251;22649;-80
2023/07/08 07:03:24;;;;;;;8.10;5.10;;;;;;;;;;107915;1252;25401;-81
2023/07/08 07:05:50;;;;;;;8.00;4.30;;;;;;;;;;108041;1251;24235;-81
2023/07/08 07:08:16;;;;;;;6.30;4.20;;;;;;;;;;108112;1251;152921;-80
2023/07/08 07:10:43;;;;;;;7.80;4.00;;;;;;;;;;107733;1251;22639;-80
2023/07/08 07:13:09;;;;;;;6.60;4.10;;;;;;;;;;107852;1251;22601;-80
2023/07/08 07:15:36;;;;;;;5.50;3.90;;;;;;;;;;107836;1256;22534;-80
2023/07/08 07:18:03;;;;;;;7.00;3.60;;;;;;;;;;108189;1251;22533;-80
2023/07/08 07:20:29;;;;;;;4.70;3.40;;;;;;;;;;107934;1251;23091;-80
2023/07/08 07:22:55;;;;;;;10.10;3.40;;;;;;;;;;107951;1254;25393;-81
2023/07/08 07:25:22;;;;;;;6.50;4.40;;;;;;;;;;107744;1253;22613;-81
2023/07/08 07:27:49;;;;;;;5.30;3.10;;;;;;;;;;107874;1253;22527;-80
2023/07/08 07:30:15;;;;;;;4.60;3.00;;;;;;;;;;108019;1251;25397;-81
2023/07/08 07:32:42;;;;;;;7.20;3.10;;;;;;;;;;108204;1249;22855;-81
2023/07/08 07:35:12;;;;;;;14.80;3.50;;;;;;;;;;107972;1252;25488;-80
2023/07/08 07:37:39;;;;;;;4.10;3.20;;;;;;;;;;107988;1251;24214;-81
2023/07/08 07:40:12;;;;;;;4.80;3.10;;;;;;;;;;107949;1251;25349;-81
2023/07/08 07:42:39;;;;;;;6.90;3.20;;;;;;;;;;108076;1251;24340;-81
2023/07/08 07:45:06;;;;;;;8.20;2.90;;;;;;;;;;108040;1251;23038;-81
2023/07/08 07:47:32;;;;;;;9.00;4.00;;;;;;;;;;107888;1251;22566;-81
2023/07/08 07:49:59;;;;;;;7.90;4.40;;;;;;;;;;108086;1251;22532;-81
2023/07/08 07:52:25;;;;;;;6.70;4.50;;;;;;;;;;107963;1251;23225;-81
2023/07/08 07:54:52;;;;;;;3.90;2.70;;;;;;;;;;107982;1251;25351;-81
2023/07/08 07:57:18;;;;;;;6.20;3.70;;;;;;;;;;107693;1251;22518;-81
2023/07/08 07:59:44;;;;;;;19.70;3.40;;;;;;;;;;107870;1251;22538;-81
2023/07/08 08:02:11;;;;;;;7.10;3.40;;;;;;;;;;107905;1251;22531;-80
2023/07/08 08:04:38;;;;;;;5.50;2.40;;;;;;;;;;107933;1250;22887;-81
2023/07/08 08:07:04;;;;;;;4.40;2.70;;;;;;;;;;107948;1251;22878;-80
2023/07/08 08:09:30;;;;;;;7.40;3.70;;;;;;;;;;107763;1251;25449;-81
2023/07/08 08:11:57;;;;;;;7.80;3.50;;;;;;;;;;107914;1254;22530;-81
2023/07/08 08:14:23;;;;;;;2.60;2.00;;;;;;;;;;107921;1251;24206;-82
2023/07/08 08:16:50;;;;;;;3.50;1.80;;;;;;;;;;107926;1251;24263;-81
2023/07/08 08:19:16;;;;;;;2.30;1.60;;;;;;;;;;108033;1251;25406;-81
2023/07/08 08:21:42;;;;;;;2.70;2.00;;;;;;;;;;107819;1251;22692;-81
2023/07/08 08:24:09;;;;;;;3.10;1.80;;;;;;;;;;107978;1253;22620;-81
2023/07/08 08:26:35;;;;;;;3.20;1.80;;;;;;;;;;107933;1251;22558;-81
2023/07/08 08:29:01;;;;;;;2.00;1.40;;;;;;;;;;107843;1251;22651;-81
2023/07/08 08:31:28;;;;;;;10.60;2.00;;;;;;;;;;107959;1251;22604;-81
2023/07/08 08:33:55;;;;;;;2.80;1.70;;;;;;;;;;108054;1251;25390;-82
2023/07/08 08:36:21;;;;;;;5.90;2.30;;;;;;;;;;107936;1251;24411;-82
2023/07/08 08:38:48;;;;;;;4.60;1.90;;;;;;;;;;107932;1255;24195;-82
2023/07/08 08:41:16;;;;;;;2.50;1.50;;;;;;;;;;107873;1253;22521;-81
2023/07/08 08:43:42;;;;;;;4.90;1.90;;;;;;;;;;107906;1251;22710;-82
2023/07/08 08:46:10;;;;;;;2.60;1.60;;;;;;;;;;107998;1252;24181;-82
2023/07/08 08:48:40;;;;;;;5.00;3.80;;;;;;;;;;107864;1251;24730;-82
2023/07/08 08:51:08;;;;;;;4.80;2.30;;;;;;;;;;108007;1251;22635;-81
2023/07/08 08:53:34;;;;;;;;;;;;;;;;;;107841;1252;23265;-82
2023/07/08 08:56:04;;;;;;;2.80;1.70;;;;;;;;;;107846;1251;22541;-82
2023/07/08 08:58:31;;;;;;;4.10;2.10;;;;;;;;;;107853;1255;22558;-82
2023/07/08 09:01:01;;;;;;;5.90;1.90;;;;;;;;;;107949;1252;22589;-82
2023/07/08 09:03:36;;;;;;;5.10;1.60;;;;;;;;;;107881;1251;22613;-82
2023/07/08 09:06:10;;;;;;;2.70;1.60;;;;;;;;;;107960;1253;24589;-82
2023/07/08 09:08:36;;;;;;;2.20;1.40;;;;;;;;;;107893;1251;25375;-82
2023/07/08 09:11:07;;;;;;;5.90;4.30;;;;;;;;;;107883;1251;22640;-82
2023/07/08 09:13:34;;;;;;;3.40;2.00;;;;;;;;;;107813;1257;26418;-82
2023/07/08 09:16:03;;;;;;;4.20;1.60;;;;;;;;;;107901;1251;23820;-82
2023/07/08 09:18:35;;;;;;;5.50;1.30;;;;;;;;;;107939;1253;22546;-82
2023/07/08 09:21:03;;;;;;;3.00;1.60;;;;;;;;;;107953;1255;22526;-82
2023/07/08 09:23:30;;;;;;;3.40;1.50;;;;;;;;;;107868;1251;22676;-82
2023/07/08 09:26:04;;;;;;;3.00;1.60;;;;;;;;;;107991;1251;22621;-82
2023/07/08 09:28:38;;;;;;;2.70;1.60;;;;;;;;;;107881;1252;22537;-82
2023/07/08 09:31:05;;;;;;;7.60;1.80;;;;;;;;;;107857;1251;22601;-82
2023/07/08 09:33:31;;;;;;;4.30;1.80;;;;;;;;;;107911;1253;25206;-82
2023/07/08 09:35:58;;;;;;;4.20;1.90;;;;;;;;;;107935;1253;22521;-82
2023/07/08 09:38:24;;;;;;;3.00;1.80;;;;;;;;;;107910;1254;22588;-82
2023/07/08 09:40:53;;;;;;;4.40;1.40;;;;;;;;;;107917;1251;25469;-82
2023/07/08 09:43:22;;;;;;;4.00;2.50;;;;;;;;;;107966;1251;22663;-82
2023/07/08 09:45:48;;;;;;;5.10;2.40;;;;;;;;;;107912;1251;22623;-82
2023/07/08 09:48:20;;;;;;;2.60;1.80;;;;;;;;;;107827;1252;22620;-82
2023/07/08 09:50:47;;;;;;;4.70;1.50;;;;;;;;;;107889;1252;22520;-82
2023/07/08 09:53:14;;;;;;;2.40;1.60;;;;;;;;;;107989;1251;23108;-82
2023/07/08 09:55:40;;;;;;;4.50;1.50;;;;;;;;;;107818;1252;22632;-82
2023/07/08 09:58:09;;;;;;;1.90;1.60;;;;;;;;;;107929;1252;25361;-82
2023/07/08 10:00:39;;;;;;;2.30;1.70;;;;;;;;;;107881;1251;22528;-82
2023/07/08 10:03:17;;;;;;;3.30;1.60;;;;;;;;;;107906;1254;25266;-82
2023/07/08 10:05:45;;;;;;;3.30;1.50;;;;;;;;;;107858;1252;22573;-82
2023/07/08 10:08:14;;;;;;;5.30;1.50;;;;;;;;;;107890;1253;22530;-82
2023/07/08 10:10:40;;;;;;;2.90;1.80;;;;;;;;;;107889;1250;22541;-82
2023/07/08 10:13:25;;;;;;;1.80;1.30;;;;;;;;;;107819;1254;22532;-82
2023/07/08 10:15:53;;;;;;;2.80;1.80;;;;;;;;;;107881;1251;22541;-82
2023/07/08 10:18:22;;;;;;;2.60;1.60;;;;;;;;;;107874;1253;22531;-82
2023/07/08 10:21:14;;;;;;;1.90;1.30;;;;;;;;;;107921;1253;22572;-82
2023/07/08 10:23:49;;;;;;;3.40;1.40;;;;;;;;;;107697;1252;25554;-82
2023/07/08 10:26:21;;;;;;;4.00;1.40;;;;;;;;;;107926;1251;24349;-82
2023/07/08 10:28:47;;;;;;;1.80;1.40;;;;;;;;;;107987;1253;22566;-83
2023/07/08 10:31:53;;;;;;;3.30;1.40;;;;;;;;;;107959;1250;25354;-82
2023/07/08 10:34:28;;;;;;;6.50;2.20;;;;;;;;;;107291;1258;25351;-82
2023/07/08 10:36:55;;;;;;;2.10;1.30;;;;;;;;;;107281;1260;24294;-83
2023/07/08 10:39:40;;;;;;;6.10;2.40;;;;;;;;;;107713;1255;25363;-82
2023/07/08 10:42:25;;;;;;;2.40;1.90;;;;;;;;;;107965;1253;22533;-82
2023/07/08 10:44:55;;;;;;;2.60;1.40;;;;;;;;;;107935;1253;23109;-82
2023/07/08 10:47:24;;;;;;;3.30;1.80;;;;;;;;;;107670;1254;22713;-82
2023/07/08 10:49:51;;;;;;;5.30;1.80;;;;;;;;;;107557;1251;23210;-82
2023/07/08 10:52:26;;;;;;;6.20;2.10;;;;;;;;;;107569;1251;25872;-82
2023/07/08 10:55:13;;;;;;;3.00;1.80;;;;;;;;;;107620;1255;25334;-82
2023/07/08 10:57:45;;;;;;;1.70;1.40;;;;;;;;;;107596;1253;24235;-82
2023/07/08 11:00:21;;;;;;;2.50;1.70;;;;;;;;;;107582;1254;22523;-82
2023/07/08 11:03:07;;;;;;;2.10;1.60;;;;;;;;;;107599;1253;22478;-82
2023/07/08 11:05:34;;;;;;;;;;;;;;;;;;107610;1250;25339;-82
2023/07/08 11:08:27;;;;;;;2.90;1.60;;;;;;;;;;107650;1254;22530;-82
2023/07/08 11:10:56;;;;;;;1.90;1.20;;;;;;;;;;107546;1251;22517;-82
2023/07/08 11:13:23;;;;;;;2.50;1.50;;;;;;;;;;107545;1253;25268;-82
2023/07/08 11:15:49;;;;;;;;;;;;;;;;;;107567;1252;22499;-82
2023/07/08 11:18:25;;;;;;;2.30;2.00;;;;;;;;;;107590;1253;25539;-82
2023/07/08 11:21:09;;;;;;;1.60;1.40;;;;;;;;;;107595;1255;25299;-82
2023/07/08 11:23:40;;;;;;;1.80;1.30;;;;;;;;;;107647;1255;22642;-82
2023/07/08 11:26:06;;;;;;;3.30;1.80;;;;;;;;;;107477;1253;24274;-84
2023/07/08 11:28:32;;;;;;;2.00;1.50;;;;;;;;;;107682;1252;22626;-81
2023/07/08 11:30:59;;;;;;;1.70;1.30;;;;;;;;;;107558;1252;24194;-81
2023/07/08 11:33:26;;;;;;;;;;;;;;;;;;107574;1251;22530;-81
2023/07/08 11:35:55;;;;;;;4.20;1.50;;;;;;;;;;107511;1255;22618;-81
2023/07/08 11:38:21;;;;;;;2.00;1.40;;;;;;;;;;107642;1251;25395;-81
2023/07/08 11:40:58;;;;;;;4.50;1.50;;;;;;;;;;107552;1255;22523;-81
2023/07/08 11:43:26;;;;;;;1.30;1.10;;;;;;;;;;107623;1253;24090;-81
2023/07/08 11:45:53;;;;;;;3.80;1.30;;;;;;;;;;107552;1251;23295;-81
2023/07/08 11:48:30;;;;;;;2.00;1.70;;;;;;;;;;107545;1251;23749;-81
2023/07/08 11:50:57;;;;;;;4.20;1.50;;;;;;;;;;107575;1252;22527;-81
2023/07/08 11:53:30;;;;;;;1.80;1.40;;;;;;;;;;107450;1252;23099;-81
2023/07/08 11:55:56;;;;;;;2.10;1.60;;;;;;;;;;107580;1252;22895;-82
2023/07/08 11:58:24;;;;;;;3.20;1.40;;;;;;;;;;107591;1251;22463;-82
2023/07/08 12:01:03;;;;;;;1.80;1.50;;;;;;;;;;107542;1255;22528;-82
2023/07/08 12:03:40;;;;;;;1.40;1.30;;;;;;;;;;107593;1255;22524;-82
2023/07/08 12:06:25;;;;;;;3.10;1.20;;;;;;;;;;107604;1251;23048;-82
2023/07/08 12:08:55;;;;;;;2.40;1.30;;;;;;;;;;107607;1251;25408;-82
2023/07/08 12:11:32;;;;;;;2.70;1.60;;;;;;;;;;107558;1253;22710;-82
2023/07/08 12:13:58;;;;;;;;;;;;;;;;;;107623;1251;25353;-82
2023/07/08 12:16:25;;;;;;;3.50;1.10;;;;;;;;;;107527;1253;23681;-82
2023/07/08 12:18:52;;;;;;;2.20;1.50;;;;;;;;;;107572;1251;25386;-82
2023/07/08 12:21:18;;;;;;;;;;;;;;;;;;107568;1251;25317;-82
2023/07/08 12:23:45;;;;;;;4.50;1.30;;;;;;;;;;107564;1254;25337;-82
2023/07/08 12:26:12;;;;;;;;;;;;;;;;;;107597;1252;25355;-82
2023/07/08 12:28:38;;;;;;;2.10;1.00;;;;;;;;;;107577;1251;24202;-82
2023/07/08 12:31:14;;;;;;;2.00;1.50;;;;;;;;;;107568;1250;22525;-82
2023/07/08 12:33:40;;;;;;;1.70;1.40;;;;;;;;;;107639;1252;22540;-82
2023/07/08 12:36:09;;;;;;;4.20;1.50;;;;;;;;;;107546;1252;24292;-82
2023/07/08 12:38:36;;;;;;;3.10;1.10;;;;;;;;;;107569;1251;25329;-82
2023/07/08 12:41:05;;;;;;;2.70;1.60;;;;;;;;;;107433;1252;23115;-82
2023/07/08 12:43:32;;;;;;;3.90;1.40;;;;;;;;;;107408;1257;22522;-82
2023/07/08 12:45:58;;;;;;;1.70;1.40;;;;;;;;;;107586;1252;25217;-82
2023/07/08 12:48:24;;;;;;;2.40;1.60;;;;;;;;;;107628;1253;22678;-82
2023/07/08 12:50:51;;;;;;;1.60;1.10;;;;;;;;;;107569;1250;22531;-82
2023/07/08 12:53:17;;;;;;;1.70;1.50;;;;;;;;;;107575;1253;22537;-82
2023/07/08 12:55:43;;;;;;;3.00;1.80;;;;;;;;;;107559;1253;22571;-82
2023/07/08 12:58:12;;;;;;;6.30;1.60;;;;;;;;;;107561;1252;24376;-82
2023/07/08 13:00:39;;;;;;;1.50;1.30;;;;;;;;;;107547;1252;24182;-82
2023/07/08 13:03:05;;;;;;;;;;;;;;;;;;107565;1253;22512;-82
2023/07/08 13:05:32;;;;;;;3.20;1.40;;;;;;;;;;107530;1253;22645;-82
2023/07/08 13:07:58;;;;;;;1.60;1.30;;;;;;;;;;107552;1251;22525;-82
2023/07/08 13:10:25;;;;;;;2.30;1.60;;;;;;;;;;107630;1251;22627;-82
2023/07/08 13:12:52;;;;;;;;;;;;;;;;;;107572;1255;22766;-82
2023/07/08 13:15:21;;;;;;;7.50;1.60;;;;;;;;;;107570;1251;22784;-82
2023/07/08 13:17:47;;;;;;;1.80;1.40;;;;;;;;;;107587;1251;22669;-82
2023/07/08 13:20:14;;;;;;;4.00;1.30;;;;;;;;;;107584;1251;22628;-82
2023/07/08 13:22:43;;;;;;;2.40;1.50;;;;;;;;;;107586;1251;25411;-82
2023/07/08 13:25:13;;;;;;;2.00;1.50;;;;;;;;;;107567;1255;25399;-82
2023/07/08 13:27:40;;;;;;;3.70;1.60;;;;;;;;;;107498;1257;22521;-82
2023/07/08 13:30:17;;;;;;;4.40;1.40;;;;;;;;;;107574;1255;22531;-82
2023/07/08 13:32:43;;;;;;;2.10;1.40;;;;;;;;;;107566;1251;22814;-82
2023/07/08 13:35:27;;;;;;;2.50;1.80;;;;;;;;;;107556;1251;22712;-82
2023/07/08 13:37:55;;;;;;;1.50;1.30;;;;;;;;;;107668;1255;22530;-82
2023/07/08 13:40:21;;;;;;;2.10;1.40;;;;;;;;;;107803;1255;22608;-81
2023/07/08 13:42:51;;;;;;;2.90;1.60;;;;;;;;;;107534;1255;25890;-84
2023/07/08 13:45:19;;;;;;;2.80;1.60;;;;;;;;;;107419;1257;25464;-82
2023/07/08 13:47:46;;;;;;;2.30;1.70;;;;;;;;;;107569;1252;23039;-82
2023/07/08 13:50:23;;;;;;;1.60;1.30;;;;;;;;;;107537;1251;22555;-82
2023/07/08 13:52:53;;;;;;;3.70;1.90;;;;;;;;;;107513;1253;24479;-82
2023/07/08 13:55:20;;;;;;;2.20;1.50;;;;;;;;;;107576;1253;22544;-82
2023/07/08 13:57:54;;;;;;;16.00;1.90;;;;;;;;;;107519;1251;23259;-82
2023/07/08 14:00:21;;;;;;;3.90;1.80;;;;;;;;;;107569;1255;25358;-81
2023/07/08 14:02:47;;;;;;;2.80;1.70;;;;;;;;;;107594;1255;25182;-81
2023/07/08 14:05:15;;;;;;;2.20;1.80;;;;;;;;;;107576;1255;22594;-81
2023/07/08 14:07:41;;;;;;;6.80;1.80;;;;;;;;;;107422;1257;22539;-81
2023/07/08 14:10:11;;;;;;;4.20;1.90;;;;;;;;;;107612;1253;22538;-81
2023/07/08 14:12:37;;;;;;;2.60;1.50;;;;;;;;;;107556;1252;22527;-81
2023/07/08 14:15:03;;;;;;;2.10;1.50;;;;;;;;;;107556;1251;22525;-81
2023/07/08 14:17:31;;;;;;;2.70;1.50;;;;;;;;;;107606;1251;24352;-82
2023/07/08 14:19:57;;;;;;;;;;;;;;;;;;107462;1252;25372;-81
2023/07/08 14:22:25;;;;;;;3.10;1.90;;;;;;;;;;107444;1256;22549;-81
2023/07/08 14:24:52;;;;;;;3.00;1.90;;;;;;;;;;107564;1254;22536;-82
2023/07/08 14:27:18;;;;;;;2.60;1.50;;;;;;;;;;107543;1252;23665;-81
2023/07/08 14:29:49;;;;;;;2.50;1.90;;;;;;;;;;107534;1255;25144;-81
2023/07/08 14:32:20;;;;;;;2.20;1.70;;;;;;;;;;107601;1251;25348;-81
2023/07/08 14:34:48;;;;;;;1.70;1.40;;;;;;;;;;107601;1253;23266;-81